CheckWX is a tool to help pilots better visualize weather data.  It is not intended as a substitute for an official pre-flight weather briefing.

00:24:31 UTC

EGMC TAF
Southend Airport
Southend, United Kingdom
TAF EGMC 052304Z 0600/0609 23018KT 9999 BKN017 BECMG 0600/0602 BKN014 TEMPO 0600/0606 7000 -RADZ BKN008 PROB40 TEMPO 0600/0609 3000 RADZ PROB30 TEMPO 0600/0609 24021G31KT

Dec-6@
00:00 UTC

Dec-6 @ 00:00 UTC

Dec-6@
09:00 UTC

Dec-6 @ 09:00 UTC

TAF EGMC 052304Z 0600/0609 23018KT 9999 BKN017
Wind
  • 230° at 18 KTS
Cloud Levels
  • Broken at 1,700' AGL

Dec-6@
00:00 UTC

Dec-6 @ 00:00 UTC

Dec-6@
09:00 UTC

Dec-6 @ 09:00 UTC

PROB30 TEMPO 0600/0609 24021G31KT

Temporary - 30% Likelihood

Temporary - 30% Likelihood during this time.

Wind
  • 240° at 21 KTS
  • {Gusting to 31 KTS

Dec-6@
00:00 UTC

Dec-6 @ 00:00 UTC

Dec-6@
06:00 UTC

Dec-6 @ 06:00 UTC

TEMPO 0600/0606 7000 -RADZ BKN008

Temporary

Temporary Changes expected for less than half the time period

Conditions
Light Rain, Light Drizzle
Cloud Levels
  • Broken at 800' AGL

Dec-6@
00:00 UTC

Dec-6 @ 00:00 UTC

Dec-6@
09:00 UTC

Dec-6 @ 09:00 UTC

BECMG 0600/0602 BKN014

Becoming

Becoming Conditions expected by Fri, Dec 6, 2019 @ 02:00 UTC

Wind
  • 230° at 18 KTS
Cloud Levels
  • Broken at 1,400' AGL

Dec-6@
00:00 UTC

Dec-6 @ 00:00 UTC

Dec-6@
09:00 UTC

Dec-6 @ 09:00 UTC

PROB40 TEMPO 0600/0609 3000 RADZ

Temporary - 40% Likelihood

Temporary - 40% Likelihood during this time.

Conditions
Rain, Drizzle